Time;durP1;ratioP1;P1;durP2;ratioP2;P2;SDS_P1;SDS_P2;PMS_P1;PMS_P2;Temp;Humidity;BMP_temperature;BMP_pressure;BME280_temperature;BME280_humidity;BME280_pressure;Samples;Min_cycle;Max_cycle;Signal;HPM_P1;HPM_P2
2022/09/23 00:02:13;;;;;;;2.53;1.00;;;;;;;;;;5110402;28;19931;-75
2022/09/23 00:04:43;;;;;;;1.55;1.00;;;;;;;;;;5110069;28;20048;-73
2022/09/23 00:07:14;;;;;;;5.22;2.10;;;;;;;;;;5118457;27;20493;-73
2022/09/23 00:09:43;;;;;;;1.02;0.70;;;;;;;;;;5109524;28;20792;-75
2022/09/23 00:12:13;;;;;;;1.75;1.08;;;;;;;;;;5107914;28;20039;-73
2022/09/23 00:14:44;;;;;;;1.67;0.98;;;;;;;;;;5109537;28;20047;-74
2022/09/23 00:17:13;;;;;;;;;;;;;;;;;;5110272;28;20055;-75
2022/09/23 00:19:43;;;;;;;2.20;1.30;;;;;;;;;;5109724;28;19923;-73
2022/09/23 00:22:13;;;;;;;2.92;1.33;;;;;;;;;;5109642;28;20055;-74
2022/09/23 00:24:43;;;;;;;;;;;;;;;;;;5120085;27;20039;-77
2022/09/23 00:27:12;;;;;;;2.80;0.70;;;;;;;;;;5117522;27;19926;-72
2022/09/23 00:29:42;;;;;;;;;;;;;;;;;;5118066;27;20070;-73
2022/09/23 00:32:12;;;;;;;1.67;0.80;;;;;;;;;;5119994;27;20332;-71
2022/09/23 00:34:43;;;;;;;0.40;0.30;;;;;;;;;;5119155;27;20059;-74
2022/09/23 00:37:15;;;;;;;2.25;0.88;;;;;;;;;;5114915;27;20047;-74
2022/09/23 00:39:45;;;;;;;2.97;0.80;;;;;;;;;;5118156;27;20043;-72
2022/09/23 00:42:20;;;;;;;2.20;1.00;;;;;;;;;;5116213;27;20040;-75
2022/09/23 00:44:53;;;;;;;1.40;0.60;;;;;;;;;;5117368;27;20047;-75
2022/09/23 00:47:40;;;;;;;2.97;0.88;;;;;;;;;;5118349;27;20046;-73
2022/09/23 00:50:13;;;;;;;1.80;1.00;;;;;;;;;;5118512;27;20047;-72
2022/09/23 00:52:45;;;;;;;1.23;0.82;;;;;;;;;;5119408;27;20047;-77
2022/09/23 00:55:21;;;;;;;1.02;0.80;;;;;;;;;;5115572;27;20040;-72
2022/09/23 00:57:55;;;;;;;0.90;0.60;;;;;;;;;;5117469;27;20036;-71
2022/09/23 01:00:25;;;;;;;1.35;0.82;;;;;;;;;;5117831;27;20046;-74
2022/09/23 01:02:54;;;;;;;;;;;;;;;;;;5118590;27;20047;-71
2022/09/23 01:05:24;;;;;;;4.55;0.85;;;;;;;;;;5117801;27;20460;-73
2022/09/23 01:07:56;;;;;;;1.40;0.88;;;;;;;;;;5114811;27;20046;-71
2022/09/23 01:10:35;;;;;;;1.40;1.00;;;;;;;;;;5117176;27;20039;-73
2022/09/23 01:13:11;;;;;;;1.00;0.77;;;;;;;;;;5117902;27;20423;-74
2022/09/23 01:16:04;;;;;;;;;;;;;;;;;;5129810;27;20058;-72
2022/09/23 01:18:45;;;;;;;1.33;0.90;;;;;;;;;;5129102;27;19946;-74
2022/09/23 01:21:35;;;;;;;0.75;0.68;;;;;;;;;;5128909;27;20088;-70
2022/09/23 01:24:50;;;;;;;1.63;0.88;;;;;;;;;;5128218;27;20062;-73
2022/09/23 01:27:51;;;;;;;0.73;0.70;;;;;;;;;;5127643;27;20454;-74
2022/09/23 01:30:39;;;;;;;;;;;;;;;;;;5129940;27;20039;-74
2022/09/23 01:33:17;;;;;;;0.40;0.40;;;;;;;;;;5128818;27;19919;-73
2022/09/23 01:35:55;;;;;;;0.77;0.65;;;;;;;;;;5127462;27;20051;-73
2022/09/23 01:39:02;;;;;;;1.65;0.70;;;;;;;;;;5127466;27;20047;-73
2022/09/23 01:41:52;;;;;;;2.05;0.80;;;;;;;;;;5116012;27;20059;-72
2022/09/23 01:44:29;;;;;;;0.52;0.43;;;;;;;;;;5127794;27;20045;-72
2022/09/23 01:47:10;;;;;;;2.03;1.23;;;;;;;;;;5127051;27;20445;-75
2022/09/23 01:53:05;;;;;;;1.23;0.75;;;;;;;;;;5081442;27;20066;-75
2022/09/23 01:55:40;;;;;;;2.88;0.90;;;;;;;;;;5127390;27;20051;-75
2022/09/23 01:58:40;;;;;;;0.50;0.50;;;;;;;;;;5125123;27;20054;-74
2022/09/23 02:01:18;;;;;;;0.98;0.60;;;;;;;;;;5122210;27;20059;-73
2022/09/23 02:03:58;;;;;;;0.68;0.43;;;;;;;;;;5127789;27;20051;-76
2022/09/23 02:06:35;;;;;;;0.88;0.77;;;;;;;;;;5127707;27;20051;-74
2022/09/23 02:09:14;;;;;;;2.70;0.40;;;;;;;;;;5126736;27;20055;-74
2022/09/23 02:11:47;;;;;;;1.55;0.60;;;;;;;;;;5127461;27;20055;-75
2022/09/23 02:14:24;;;;;;;0.50;0.45;;;;;;;;;;5126771;27;20051;-74
2022/09/23 02:16:59;;;;;;;2.67;1.13;;;;;;;;;;5127482;27;20151;-75
2022/09/23 02:19:50;;;;;;;1.65;0.50;;;;;;;;;;5127446;27;20039;-76
2022/09/23 02:22:26;;;;;;;2.65;0.63;;;;;;;;;;5127545;27;20097;-72
2022/09/23 02:24:57;;;;;;;0.57;0.45;;;;;;;;;;5127625;27;20047;-73
2022/09/23 02:27:54;;;;;;;1.52;0.90;;;;;;;;;;5128609;27;20043;-75
2022/09/23 02:30:29;;;;;;;0.50;0.50;;;;;;;;;;5127792;27;20058;-74
2022/09/23 02:33:10;;;;;;;2.05;0.73;;;;;;;;;;5127851;27;20397;-72
2022/09/23 02:36:04;;;;;;;0.60;0.60;;;;;;;;;;5125954;27;20603;-74
2022/09/23 02:38:50;;;;;;;0.80;0.73;;;;;;;;;;5127910;27;20039;-72
2022/09/23 02:41:56;;;;;;;5.15;0.68;;;;;;;;;;5127684;27;20047;-72
2022/09/23 02:44:27;;;;;;;0.93;0.47;;;;;;;;;;5096826;27;20413;-71
2022/09/23 02:46:56;;;;;;;1.55;0.70;;;;;;;;;;5127829;27;20043;-75
2022/09/23 02:49:29;;;;;;;0.80;0.65;;;;;;;;;;5127007;27;20039;-73
2022/09/23 02:52:04;;;;;;;1.13;0.88;;;;;;;;;;5127782;28;20057;-71
2022/09/23 02:54:35;;;;;;;0.88;0.50;;;;;;;;;;5127631;28;20489;-73
2022/09/23 02:57:07;;;;;;;1.92;0.80;;;;;;;;;;5128304;28;20043;-75
2022/09/23 02:59:38;;;;;;;1.10;0.52;;;;;;;;;;5127389;28;20043;-75
2022/09/23 03:02:44;;;;;;;0.50;0.30;;;;;;;;;;5128163;28;20040;-73
2022/09/23 03:05:24;;;;;;;1.30;0.65;;;;;;;;;;5127627;28;20039;-75
2022/09/23 03:08:35;;;;;;;0.70;0.60;;;;;;;;;;5128748;28;20047;-71
2022/09/23 03:11:09;;;;;;;2.53;0.95;;;;;;;;;;5128424;28;20494;-71
2022/09/23 03:14:24;;;;;;;1.65;0.82;;;;;;;;;;5126229;28;20822;-74
2022/09/23 03:17:26;;;;;;;0.60;0.60;;;;;;;;;;5127640;28;20397;-73
2022/09/23 03:20:22;;;;;;;2.20;0.88;;;;;;;;;;5083926;27;20063;-73
2022/09/23 03:23:01;;;;;;;1.35;0.80;;;;;;;;;;5091689;27;20070;-73
2022/09/23 03:25:36;;;;;;;0.98;0.63;;;;;;;;;;5127385;28;20058;-74
2022/09/23 03:28:07;;;;;;;0.50;0.50;;;;;;;;;;5127821;28;20062;-75
2022/09/23 03:30:39;;;;;;;1.60;0.77;;;;;;;;;;5127358;28;20409;-75
2022/09/23 03:33:12;;;;;;;3.55;0.90;;;;;;;;;;5127348;28;20516;-73
2022/09/23 03:38:49;;;;;;;0.73;0.40;;;;;;;;;;5127398;28;20595;-72
2022/09/23 03:41:31;;;;;;;1.48;0.57;;;;;;;;;;5127331;28;20074;-74
2022/09/23 03:44:02;;;;;;;1.95;0.50;;;;;;;;;;5127959;28;20052;-73
2022/09/23 03:46:34;;;;;;;1.95;0.70;;;;;;;;;;5127236;28;20493;-75
2022/09/23 03:49:28;;;;;;;2.95;0.88;;;;;;;;;;5127043;28;20055;-75
2022/09/23 03:51:59;;;;;;;1.63;0.40;;;;;;;;;;5127430;28;20548;-71
2022/09/23 03:54:30;;;;;;;0.70;0.32;;;;;;;;;;5127822;28;20050;-75
2022/09/23 03:57:01;;;;;;;2.88;0.50;;;;;;;;;;5127010;28;20047;-74
2022/09/23 03:59:33;;;;;;;0.17;0.17;;;;;;;;;;5127484;27;20039;-73
2022/09/23 04:02:06;;;;;;;1.25;0.70;;;;;;;;;;5130389;27;20047;-73
2022/09/23 04:04:39;;;;;;;0.90;0.60;;;;;;;;;;5130809;27;20516;-73
2022/09/23 04:07:10;;;;;;;1.08;0.30;;;;;;;;;;5130520;27;20476;-73
2022/09/23 04:09:40;;;;;;;1.33;0.70;;;;;;;;;;5130930;27;20051;-74
2022/09/23 04:12:14;;;;;;;;;;;;;;;;;;5131627;27;20050;-74
2022/09/23 04:14:44;;;;;;;0.63;0.40;;;;;;;;;;5131276;27;19927;-73
2022/09/23 04:17:14;;;;;;;0.70;0.30;;;;;;;;;;5131103;27;20129;-74
2022/09/23 04:19:44;;;;;;;0.65;0.40;;;;;;;;;;5130705;27;20074;-73
2022/09/23 04:22:14;;;;;;;0.47;0.47;;;;;;;;;;5130487;27;20046;-73
2022/09/23 04:24:44;;;;;;;3.00;0.80;;;;;;;;;;5129438;27;20047;-76
2022/09/23 04:27:14;;;;;;;3.35;0.90;;;;;;;;;;5130824;27;20213;-76
2022/09/23 04:29:43;;;;;;;;;;;;;;;;;;5129536;27;20043;-72
2022/09/23 04:32:13;;;;;;;0.95;0.70;;;;;;;;;;5130584;27;19923;-76
2022/09/23 04:34:43;;;;;;;2.17;0.77;;;;;;;;;;5130051;27;20513;-75
2022/09/23 04:37:13;;;;;;;0.80;0.50;;;;;;;;;;5129780;27;20489;-74
2022/09/23 04:39:43;;;;;;;1.08;0.70;;;;;;;;;;5130278;27;20066;-74
2022/09/23 04:42:14;;;;;;;0.60;0.50;;;;;;;;;;5130152;27;20069;-73
2022/09/23 04:44:43;;;;;;;1.00;0.68;;;;;;;;;;5129944;27;20509;-71
2022/09/23 04:47:14;;;;;;;1.20;0.50;;;;;;;;;;5130310;27;20049;-73
2022/09/23 04:49:44;;;;;;;0.70;0.70;;;;;;;;;;5130479;27;20047;-73
2022/09/23 04:52:14;;;;;;;1.00;0.63;;;;;;;;;;5129850;27;20043;-75
2022/09/23 04:54:43;;;;;;;2.47;1.00;;;;;;;;;;5130201;27;20038;-73
2022/09/23 04:57:13;;;;;;;2.35;0.73;;;;;;;;;;5129317;27;20047;-71
2022/09/23 04:59:44;;;;;;;;;;;;;;;;;;5129627;27;20047;-74
2022/09/23 05:02:14;;;;;;;0.65;0.65;;;;;;;;;;5129636;27;19924;-75
2022/09/23 05:04:45;;;;;;;0.50;0.35;;;;;;;;;;5132640;27;20039;-77
2022/09/23 05:07:17;;;;;;;0.98;0.73;;;;;;;;;;5135515;27;20054;-70
2022/09/23 05:09:47;;;;;;;1.52;0.60;;;;;;;;;;5131111;27;20063;-71
2022/09/23 05:12:16;;;;;;;;;;;;;;;;;;5129901;27;20388;-71
2022/09/23 05:14:46;;;;;;;0.43;0.43;;;;;;;;;;5130317;27;19931;-74
2022/09/23 05:17:16;;;;;;;0.60;0.50;;;;;;;;;;5129594;27;20051;-74
2022/09/23 05:19:46;;;;;;;0.98;0.77;;;;;;;;;;5129005;27;20414;-71
2022/09/23 05:22:16;;;;;;;0.70;0.65;;;;;;;;;;5128282;27;20485;-76
2022/09/23 05:24:46;;;;;;;2.63;0.60;;;;;;;;;;5128926;27;20520;-73
2022/09/23 05:27:16;;;;;;;1.00;0.60;;;;;;;;;;5129527;27;20051;-74
2022/09/23 05:29:46;;;;;;;0.35;0.35;;;;;;;;;;5129158;27;20039;-72
2022/09/23 05:32:18;;;;;;;1.10;0.73;;;;;;;;;;5129075;27;20047;-71
2022/09/23 05:34:47;;;;;;;;;;;;;;;;;;5129537;27;20058;-75
2022/09/23 05:37:17;;;;;;;1.08;0.75;;;;;;;;;;5128923;27;19924;-75
2022/09/23 05:39:46;;;;;;;3.90;0.47;;;;;;;;;;5128926;27;20555;-73
2022/09/23 05:42:19;;;;;;;1.27;0.70;;;;;;;;;;5129552;27;20058;-76
2022/09/23 05:44:49;;;;;;;0.80;0.70;;;;;;;;;;5129008;27;20039;-75
2022/09/23 05:47:19;;;;;;;1.13;0.77;;;;;;;;;;5128878;27;20516;-74
2022/09/23 05:49:49;;;;;;;2.03;0.75;;;;;;;;;;5128438;27;20047;-75
2022/09/23 05:52:28;;;;;;;1.92;0.68;;;;;;;;;;5127985;27;20057;-75
2022/09/23 05:54:58;;;;;;;1.55;0.30;;;;;;;;;;5127103;27;20062;-74
2022/09/23 05:57:29;;;;;;;1.58;0.75;;;;;;;;;;5128942;27;20866;-74
2022/09/23 06:00:00;;;;;;;0.60;0.47;;;;;;;;;;5129103;27;20054;-76
2022/09/23 06:02:38;;;;;;;0.52;0.40;;;;;;;;;;5134175;27;20054;-74
2022/09/23 06:05:10;;;;;;;1.17;0.50;;;;;;;;;;5130110;27;20042;-73
2022/09/23 06:07:40;;;;;;;0.88;0.50;;;;;;;;;;5128410;27;20058;-75
2022/09/23 06:10:10;;;;;;;;;;;;;;;;;;5129810;27;20057;-75
2022/09/23 06:12:41;;;;;;;0.82;0.40;;;;;;;;;;5128127;27;19996;-75
2022/09/23 06:15:11;;;;;;;0.73;0.50;;;;;;;;;;5128214;27;20051;-74
2022/09/23 06:17:40;;;;;;;0.77;0.50;;;;;;;;;;5128088;27;20580;-75
2022/09/23 06:20:10;;;;;;;1.05;0.30;;;;;;;;;;5128529;27;20047;-70
2022/09/23 06:22:40;;;;;;;0.80;0.50;;;;;;;;;;5128035;27;20039;-74
2022/09/23 06:25:11;;;;;;;0.55;0.47;;;;;;;;;;5127251;27;20054;-71
2022/09/23 06:27:40;;;;;;;0.47;0.45;;;;;;;;;;5127947;27;20057;-72
2022/09/23 06:30:11;;;;;;;0.75;0.52;;;;;;;;;;5127367;27;20046;-74
2022/09/23 06:32:41;;;;;;;0.88;0.70;;;;;;;;;;5125727;27;20054;-73
2022/09/23 06:35:10;;;;;;;0.45;0.40;;;;;;;;;;5127496;27;20062;-74
2022/09/23 06:37:55;;;;;;;0.57;0.57;;;;;;;;;;5127727;27;20054;-73
2022/09/23 06:40:25;;;;;;;0.50;0.50;;;;;;;;;;5128440;27;20051;-74
2022/09/23 06:43:00;;;;;;;1.40;0.70;;;;;;;;;;5127710;27;20053;-71
2022/09/23 06:45:30;;;;;;;0.40;0.40;;;;;;;;;;5128165;27;20047;-75
2022/09/23 06:48:07;;;;;;;1.00;0.50;;;;;;;;;;5127185;28;20047;-73
2022/09/23 06:50:37;;;;;;;1.52;0.60;;;;;;;;;;5127913;28;20039;-72
2022/09/23 06:53:07;;;;;;;1.17;0.68;;;;;;;;;;5128041;28;20415;-73
2022/09/23 06:55:36;;;;;;;;;;;;;;;;;;5128129;28;20039;-76
2022/09/23 06:58:07;;;;;;;0.60;0.47;;;;;;;;;;5125662;28;19934;-73
2022/09/23 07:00:38;;;;;;;2.53;0.88;;;;;;;;;;5127393;28;20532;-75
2022/09/23 07:03:08;;;;;;;3.55;0.70;;;;;;;;;;5127478;28;20829;-74
2022/09/23 07:05:38;;;;;;;1.73;0.75;;;;;;;;;;5125673;28;20062;-72
2022/09/23 07:08:09;;;;;;;0.80;0.70;;;;;;;;;;5127710;28;20043;-75
2022/09/23 07:10:39;;;;;;;0.45;0.45;;;;;;;;;;5127366;28;20042;-74
2022/09/23 07:13:09;;;;;;;2.35;0.80;;;;;;;;;;5127071;28;20432;-74
2022/09/23 07:15:52;;;;;;;0.82;0.70;;;;;;;;;;5127198;28;20039;-71
2022/09/23 07:18:22;;;;;;;1.50;0.73;;;;;;;;;;5127320;28;20035;-75
2022/09/23 07:20:57;;;;;;;1.95;1.00;;;;;;;;;;5127516;28;20510;-73
2022/09/23 07:23:27;;;;;;;0.73;0.40;;;;;;;;;;5124818;28;20517;-72
2022/09/23 07:25:58;;;;;;;1.98;0.60;;;;;;;;;;5127303;28;20039;-74
2022/09/23 07:28:29;;;;;;;0.65;0.60;;;;;;;;;;5127289;28;20535;-71
2022/09/23 07:31:22;;;;;;;1.00;0.47;;;;;;;;;;5127462;28;20050;-72
2022/09/23 07:34:10;;;;;;;0.50;0.45;;;;;;;;;;5127491;28;20062;-72
2022/09/23 07:36:40;;;;;;;1.92;0.75;;;;;;;;;;5131544;27;20493;-72
2022/09/23 07:39:11;;;;;;;2.85;0.63;;;;;;;;;;5131552;27;20043;-73
2022/09/23 07:41:43;;;;;;;5.25;0.70;;;;;;;;;;5130693;27;20047;-73
2022/09/23 07:44:13;;;;;;;0.90;0.60;;;;;;;;;;5129386;27;20050;-70
2022/09/23 07:46:43;;;;;;;;;;;;;;;;;;5131333;27;20874;-74
2022/09/23 07:49:12;;;;;;;1.40;0.63;;;;;;;;;;5131051;27;20361;-74
2022/09/23 07:51:45;;;;;;;;;;;;;;;;;;5131783;27;20046;-75
2022/09/23 07:54:16;;;;;;;0.75;0.55;;;;;;;;;;5130937;27;19927;-71
2022/09/23 07:56:46;;;;;;;0.95;0.50;;;;;;;;;;5130862;27;20051;-75
2022/09/23 07:59:17;;;;;;;0.70;0.60;;;;;;;;;;5130552;27;20058;-75
2022/09/23 08:01:51;;;;;;;2.33;0.70;;;;;;;;;;5130984;27;20039;-71
2022/09/23 08:04:24;;;;;;;0.93;0.52;;;;;;;;;;5130916;27;20406;-74
2022/09/23 08:07:06;;;;;;;0.80;0.57;;;;;;;;;;5131148;27;20054;-72
2022/09/23 08:09:41;;;;;;;0.38;0.38;;;;;;;;;;5130642;27;20043;-74
2022/09/23 08:12:15;;;;;;;4.18;0.68;;;;;;;;;;5130658;27;20047;-74
2022/09/23 08:14:46;;;;;;;1.40;0.57;;;;;;;;;;5130481;27;20039;-73
2022/09/23 08:17:16;;;;;;;1.15;0.60;;;;;;;;;;5130705;27;20043;-75
2022/09/23 08:19:46;;;;;;;0.52;0.52;;;;;;;;;;5128189;27;20036;-72
2022/09/23 08:22:16;;;;;;;0.75;0.60;;;;;;;;;;5129594;27;20066;-75
2022/09/23 08:24:47;;;;;;;0.55;0.52;;;;;;;;;;5130352;27;20378;-74
2022/09/23 08:27:20;;;;;;;0.52;0.47;;;;;;;;;;5130109;27;20043;-75
2022/09/23 08:29:49;;;;;;;0.60;0.60;;;;;;;;;;5130281;27;20046;-73
2022/09/23 08:32:19;;;;;;;0.68;0.40;;;;;;;;;;5129457;27;20494;-73
2022/09/23 08:34:49;;;;;;;1.17;0.70;;;;;;;;;;5128412;27;20067;-74
2022/09/23 08:37:19;;;;;;;;;;;;;;;;;;5130752;27;20043;-73
2022/09/23 08:39:48;;;;;;;1.17;0.65;;;;;;;;;;5130102;27;20345;-72
2022/09/23 08:42:26;;;;;;;0.22;0.17;;;;;;;;;;5129833;27;20062;-71
2022/09/23 08:45:01;;;;;;;1.00;0.80;;;;;;;;;;5130115;27;20047;-73
2022/09/23 08:48:05;;;;;;;2.83;1.80;;;;;;;;;;5129844;27;20405;-72
2022/09/23 08:50:48;;;;;;;1.85;0.65;;;;;;;;;;5133727;27;20050;-71
2022/09/23 08:53:28;;;;;;;1.67;0.80;;;;;;;;;;5131223;27;20043;-74
2022/09/23 08:56:00;;;;;;;0.70;0.57;;;;;;;;;;5129519;27;20477;-71
2022/09/23 08:58:48;;;;;;;1.05;0.55;;;;;;;;;;5130260;27;20066;-71
2022/09/23 09:01:39;;;;;;;3.10;0.70;;;;;;;;;;5129965;27;20067;-74
2022/09/23 09:04:18;;;;;;;0.32;0.32;;;;;;;;;;5129837;27;20051;-71
2022/09/23 09:07:17;;;;;;;4.28;1.08;;;;;;;;;;5129600;27;20050;-73
2022/09/23 09:10:27;;;;;;;2.13;0.88;;;;;;;;;;5112185;27;20055;-72
2022/09/23 09:13:07;;;;;;;4.32;1.77;;;;;;;;;;5129252;27;20054;-74
2022/09/23 09:15:52;;;;;;;1.73;0.95;;;;;;;;;;5129368;27;20050;-70
2022/09/23 09:18:24;;;;;;;0.70;0.52;;;;;;;;;;5128118;27;20066;-72
2022/09/23 09:21:10;;;;;;;5.65;0.65;;;;;;;;;;5128680;27;20050;-73
2022/09/23 09:23:54;;;;;;;2.08;0.80;;;;;;;;;;5129104;27;20058;-77
2022/09/23 09:26:27;;;;;;;2.85;0.75;;;;;;;;;;5129829;27;20050;-71
2022/09/23 09:29:08;;;;;;;0.90;0.52;;;;;;;;;;5129736;27;20660;-76
2022/09/23 09:31:59;;;;;;;1.35;0.80;;;;;;;;;;5129595;27;20054;-72
2022/09/23 09:34:39;;;;;;;3.75;0.70;;;;;;;;;;5128839;27;20051;-75
2022/09/23 09:37:11;;;;;;;2.58;0.88;;;;;;;;;;5126915;27;20374;-77
2022/09/23 09:39:41;;;;;;;1.27;0.70;;;;;;;;;;5129260;27;20057;-77
2022/09/23 09:42:26;;;;;;;0.90;0.70;;;;;;;;;;5128484;27;20039;-71
2022/09/23 09:45:01;;;;;;;1.35;1.00;;;;;;;;;;5128978;27;20058;-71
2022/09/23 09:47:50;;;;;;;1.52;0.95;;;;;;;;;;5128498;27;20046;-75
2022/09/23 09:50:51;;;;;;;3.03;1.10;;;;;;;;;;5128987;27;20054;-73
2022/09/23 09:53:25;;;;;;;3.70;1.73;;;;;;;;;;5128817;27;20039;-74
2022/09/23 09:56:09;;;;;;;4.53;0.80;;;;;;;;;;5128942;27;20698;-75
2022/09/23 09:58:53;;;;;;;6.85;0.90;;;;;;;;;;5128976;27;20057;-75
2022/09/23 10:01:26;;;;;;;5.97;1.23;;;;;;;;;;5129091;27;20039;-70
2022/09/23 10:03:59;;;;;;;12.70;11.45;;;;;;;;;;5128536;27;20062;-75
2022/09/23 10:06:32;;;;;;;2.60;1.40;;;;;;;;;;5128708;27;20065;-75
2022/09/23 10:09:33;;;;;;;1.45;0.88;;;;;;;;;;5128330;27;20044;-73
2022/09/23 10:12:19;;;;;;;11.38;4.70;;;;;;;;;;5127832;27;20046;-72
2022/09/23 10:14:54;;;;;;;4.68;1.83;;;;;;;;;;5127829;27;20043;-76
2022/09/23 10:17:33;;;;;;;6.28;1.40;;;;;;;;;;5127937;27;20046;-74
2022/09/23 10:20:08;;;;;;;7.50;1.95;;;;;;;;;;5127463;27;20078;-72
2022/09/23 10:22:41;;;;;;;2.17;0.90;;;;;;;;;;5127852;27;20054;-75
2022/09/23 10:25:26;;;;;;;1.33;0.77;;;;;;;;;;5127855;27;20043;-71
2022/09/23 10:27:56;;;;;;;11.65;1.55;;;;;;;;;;5128046;27;20047;-73
2022/09/23 10:30:27;;;;;;;1.00;0.70;;;;;;;;;;5128347;27;20047;-76
2022/09/23 10:32:57;;;;;;;1.83;1.50;;;;;;;;;;5127690;27;20038;-73
2022/09/23 10:35:28;;;;;;;2.33;1.00;;;;;;;;;;5128213;27;20054;-74
2022/09/23 10:37:59;;;;;;;2.75;1.27;;;;;;;;;;5127811;27;20402;-71
2022/09/23 10:47:14;;;;;;;17.98;2.63;;;;;;;;;;5053889;28;20170;-73
2022/09/23 10:49:58;;;;;;;34.90;4.95;;;;;;;;;;5127686;28;20046;-72
2022/09/23 10:52:49;;;;;;;18.20;2.35;;;;;;;;;;5127681;28;20043;-72
2022/09/23 10:55:29;;;;;;;44.83;6.78;;;;;;;;;;5127869;28;20050;-74
2022/09/23 10:58:05;;;;;;;15.32;3.03;;;;;;;;;;5127723;28;20043;-72
2022/09/23 11:01:08;;;;;;;3.65;1.10;;;;;;;;;;5127428;28;20054;-74
2022/09/23 11:04:02;;;;;;;3.70;1.20;;;;;;;;;;5126824;28;20054;-71
2022/09/23 11:07:00;;;;;;;1.77;0.93;;;;;;;;;;5126667;28;20058;-75
2022/09/23 11:09:46;;;;;;;1.40;0.80;;;;;;;;;;5127863;27;20058;-72
2022/09/23 11:12:32;;;;;;;0.52;0.52;;;;;;;;;;5131809;27;20043;-75
2022/09/23 11:15:31;;;;;;;4.18;0.60;;;;;;;;;;5131687;27;20043;-74
2022/09/23 11:18:23;;;;;;;1.15;0.52;;;;;;;;;;5129221;27;20054;-72
2022/09/23 11:21:19;;;;;;;1.33;0.93;;;;;;;;;;5131146;27;20065;-74
2022/09/23 11:23:57;;;;;;;4.95;0.60;;;;;;;;;;5125280;27;20055;-74
2022/09/23 11:26:46;;;;;;;5.40;1.00;;;;;;;;;;5129915;27;20051;-72
2022/09/23 11:29:53;;;;;;;1.27;0.93;;;;;;;;;;5130812;27;20051;-71
2022/09/23 11:32:41;;;;;;;0.95;0.70;;;;;;;;;;5131144;27;20874;-72
2022/09/23 11:35:15;;;;;;;;;;;;;;;;;;5131735;27;20067;-71
2022/09/23 11:38:15;;;;;;;1.30;0.50;;;;;;;;;;5131327;27;19923;-72
2022/09/23 11:40:47;;;;;;;5.15;1.35;;;;;;;;;;5130962;27;20367;-73
2022/09/23 11:43:27;;;;;;;2.95;0.85;;;;;;;;;;5129545;27;20066;-73
2022/09/23 11:46:02;;;;;;;1.25;0.80;;;;;;;;;;5131235;27;20046;-74
2022/09/23 11:48:48;;;;;;;2.17;0.40;;;;;;;;;;5130752;27;20051;-73
2022/09/23 11:51:25;;;;;;;1.13;0.80;;;;;;;;;;5131269;27;20109;-75
2022/09/23 11:54:05;;;;;;;0.95;0.80;;;;;;;;;;5130655;27;20043;-73
2022/09/23 11:56:51;;;;;;;1.67;0.88;;;;;;;;;;5130707;27;20501;-72
2022/09/23 11:59:42;;;;;;;1.60;0.65;;;;;;;;;;5131076;27;20039;-71
2022/09/23 12:02:24;;;;;;;1.40;1.17;;;;;;;;;;5130730;27;20050;-77
2022/09/23 12:05:14;;;;;;;1.70;0.50;;;;;;;;;;5130509;27;20050;-69
2022/09/23 12:07:56;;;;;;;1.15;0.75;;;;;;;;;;5131095;27;20043;-74
2022/09/23 12:10:36;;;;;;;;;;;;;;;;;;5130707;27;20062;-75
2022/09/23 12:13:32;;;;;;;2.00;0.82;;;;;;;;;;5131294;27;19929;-73
2022/09/23 12:16:29;;;;;;;7.72;6.97;;;;;;;;;;5130553;27;20047;-74
2022/09/23 12:19:41;;;;;;;0.80;0.50;;;;;;;;;;5128937;27;20051;-75
2022/09/23 12:22:27;;;;;;;1.88;0.60;;;;;;;;;;5095884;27;20066;-74
2022/09/23 12:25:14;;;;;;;1.73;0.57;;;;;;;;;;5129786;27;20686;-71
2022/09/23 12:27:49;;;;;;;0.57;0.52;;;;;;;;;;5133973;27;20050;-72
2022/09/23 12:30:26;;;;;;;0.57;0.50;;;;;;;;;;5135904;27;20043;-71
2022/09/23 12:33:31;;;;;;;1.33;0.55;;;;;;;;;;5130028;27;20039;-74
2022/09/23 12:36:11;;;;;;;0.38;0.38;;;;;;;;;;5086890;27;20055;-73
2022/09/23 12:38:49;;;;;;;3.10;2.50;;;;;;;;;;5129558;27;20046;-75
2022/09/23 12:41:27;;;;;;;2.17;0.70;;;;;;;;;;5130043;27;20043;-73
2022/09/23 12:44:11;;;;;;;0.60;0.60;;;;;;;;;;5129619;27;20158;-75
2022/09/23 12:46:45;;;;;;;1.52;0.90;;;;;;;;;;5127952;27;20047;-74
2022/09/23 12:49:24;;;;;;;3.15;0.77;;;;;;;;;;5128755;27;20517;-73
2022/09/23 12:52:10;;;;;;;0.73;0.43;;;;;;;;;;5110752;27;20048;-75
2022/09/23 12:54:42;;;;;;;1.13;0.65;;;;;;;;;;5106484;28;20060;-73
2022/09/23 12:57:13;;;;;;;1.52;0.75;;;;;;;;;;5108980;28;20047;-72
2022/09/23 12:59:56;;;;;;;3.70;0.70;;;;;;;;;;5109318;28;20051;-73
2022/09/23 13:02:32;;;;;;;0.73;0.70;;;;;;;;;;5109169;28;20406;-72
2022/09/23 13:08:23;;;;;;;0.80;0.50;;;;;;;;;;5108457;28;20109;-72
2022/09/23 13:10:59;;;;;;;1.58;0.45;;;;;;;;;;5108817;28;20051;-70
2022/09/23 13:13:39;;;;;;;1.52;0.60;;;;;;;;;;5108568;28;20528;-76
2022/09/23 13:16:31;;;;;;;1.40;0.80;;;;;;;;;;5108804;28;20055;-71
2022/09/23 13:19:21;;;;;;;4.30;0.80;;;;;;;;;;5108070;28;20055;-72
2022/09/23 13:22:10;;;;;;;2.55;1.02;;;;;;;;;;5108483;28;20044;-73
2022/09/23 13:24:43;;;;;;;1.90;0.98;;;;;;;;;;5108177;28;20043;-73
2022/09/23 13:27:25;;;;;;;2.67;0.55;;;;;;;;;;5108769;28;20051;-73
2022/09/23 13:30:06;;;;;;;2.55;1.00;;;;;;;;;;5108556;28;20506;-72
2022/09/23 13:32:44;;;;;;;0.57;0.57;;;;;;;;;;5107942;28;20055;-70
2022/09/23 13:35:32;;;;;;;3.50;1.02;;;;;;;;;;5106917;28;20074;-72
2022/09/23 13:38:38;;;;;;;1.52;0.80;;;;;;;;;;5107135;28;20052;-74
2022/09/23 13:41:22;;;;;;;3.97;1.25;;;;;;;;;;5096302;28;20059;-73
2022/09/23 13:43:58;;;;;;;0.60;0.57;;;;;;;;;;5108264;28;20047;-72
2022/09/23 13:46:30;;;;;;;0.52;0.47;;;;;;;;;;5108128;28;20050;-73
2022/09/23 13:49:01;;;;;;;2.55;0.57;;;;;;;;;;5108118;28;20059;-71
2022/09/23 13:51:34;;;;;;;3.92;0.52;;;;;;;;;;5107691;28;20055;-76
2022/09/23 13:54:04;;;;;;;1.45;0.50;;;;;;;;;;5108063;28;20040;-72
2022/09/23 13:56:36;;;;;;;1.27;0.70;;;;;;;;;;5106926;28;20051;-73
2022/09/23 13:59:26;;;;;;;1.17;0.60;;;;;;;;;;5107493;28;20039;-72
2022/09/23 14:02:15;;;;;;;1.50;0.40;;;;;;;;;;5108060;28;20044;-74
2022/09/23 14:04:46;;;;;;;0.70;0.70;;;;;;;;;;5107677;28;20422;-72
2022/09/23 14:07:19;;;;;;;1.60;0.43;;;;;;;;;;5107398;28;20402;-72
2022/09/23 14:09:54;;;;;;;2.22;0.60;;;;;;;;;;5107573;28;20044;-75
2022/09/23 14:12:24;;;;;;;;;;;;;;;;;;5108216;28;20359;-73
2022/09/23 14:14:56;;;;;;;1.13;0.63;;;;;;;;;;5107949;28;19920;-72
2022/09/23 14:17:25;;;;;;;3.83;0.80;;;;;;;;;;5107277;28;20074;-73
2022/09/23 14:19:55;;;;;;;1.52;0.85;;;;;;;;;;5107112;28;20766;-75
2022/09/23 14:22:29;;;;;;;0.63;0.60;;;;;;;;;;5106666;28;20336;-75
2022/09/23 14:24:59;;;;;;;0.60;0.60;;;;;;;;;;5107528;28;20031;-75
2022/09/23 14:27:30;;;;;;;4.03;0.43;;;;;;;;;;5107356;28;20052;-74
2022/09/23 14:30:02;;;;;;;0.88;0.38;;;;;;;;;;5107330;28;20063;-73
2022/09/23 14:32:33;;;;;;;1.13;0.80;;;;;;;;;;5106613;28;20040;-73
2022/09/23 14:35:06;;;;;;;3.65;1.70;;;;;;;;;;5106894;28;20070;-73
2022/09/23 14:40:27;;;;;;;0.77;0.52;;;;;;;;;;5106891;28;20055;-75
2022/09/23 14:43:15;;;;;;;2.92;0.73;;;;;;;;;;5107570;28;20043;-73
2022/09/23 14:45:49;;;;;;;1.98;0.63;;;;;;;;;;5104029;28;20055;-75
2022/09/23 14:48:29;;;;;;;1.77;0.50;;;;;;;;;;5106379;28;20063;-74
2022/09/23 14:51:08;;;;;;;0.90;0.52;;;;;;;;;;5106459;28;20044;-74
2022/09/23 14:53:45;;;;;;;0.60;0.57;;;;;;;;;;5106538;28;20047;-75
2022/09/23 14:56:21;;;;;;;1.60;1.05;;;;;;;;;;5090733;28;20040;-76
2022/09/23 14:58:59;;;;;;;1.15;0.60;;;;;;;;;;5086213;28;20044;-73
2022/09/23 15:01:32;;;;;;;0.93;0.70;;;;;;;;;;5086309;28;20387;-75
2022/09/23 15:04:10;;;;;;;0.50;0.50;;;;;;;;;;5086497;28;20052;-73
2022/09/23 15:07:03;;;;;;;1.63;0.60;;;;;;;;;;5085920;28;20052;-74
2022/09/23 15:09:41;;;;;;;4.32;0.75;;;;;;;;;;5086090;28;20043;-71
2022/09/23 15:12:14;;;;;;;1.80;0.47;;;;;;;;;;5086269;28;20047;-73
2022/09/23 15:14:50;;;;;;;1.98;0.40;;;;;;;;;;5087082;28;20047;-75
2022/09/23 15:17:24;;;;;;;1.60;0.45;;;;;;;;;;5086345;28;20044;-75
2022/09/23 15:19:58;;;;;;;1.40;1.13;;;;;;;;;;5086077;28;20040;-74
2022/09/23 15:22:29;;;;;;;1.30;0.70;;;;;;;;;;5086739;28;20040;-74
2022/09/23 15:25:16;;;;;;;1.42;0.50;;;;;;;;;;5085717;28;20506;-74
2022/09/23 15:27:58;;;;;;;3.63;1.25;;;;;;;;;;5086340;28;20044;-75
2022/09/23 15:30:29;;;;;;;2.05;0.57;;;;;;;;;;5086464;28;20491;-75
2022/09/23 15:32:59;;;;;;;0.63;0.60;;;;;;;;;;5086268;28;20060;-74
2022/09/23 15:35:33;;;;;;;0.80;0.50;;;;;;;;;;5085152;28;20048;-70
2022/09/23 15:38:04;;;;;;;0.43;0.43;;;;;;;;;;5085821;28;20503;-74
2022/09/23 15:40:35;;;;;;;0.65;0.50;;;;;;;;;;5085869;28;20044;-75
2022/09/23 15:43:18;;;;;;;1.35;0.80;;;;;;;;;;5085633;28;20055;-73
2022/09/23 15:45:50;;;;;;;0.40;0.30;;;;;;;;;;5087932;28;20035;-72
2022/09/23 15:48:25;;;;;;;1.88;0.57;;;;;;;;;;5086075;28;20051;-71
2022/09/23 15:50:55;;;;;;;1.23;0.50;;;;;;;;;;5086392;28;20036;-74
2022/09/23 15:53:28;;;;;;;1.05;0.70;;;;;;;;;;5084600;28;20055;-74
2022/09/23 15:55:58;;;;;;;1.60;0.50;;;;;;;;;;5084361;28;20067;-75
2022/09/23 15:58:28;;;;;;;5.55;0.52;;;;;;;;;;5090110;28;20419;-70
2022/09/23 16:00:59;;;;;;;2.97;0.45;;;;;;;;;;5089426;28;20048;-74
2022/09/23 16:03:29;;;;;;;4.70;0.57;;;;;;;;;;5089947;28;20063;-74
2022/09/23 16:06:01;;;;;;;4.05;0.50;;;;;;;;;;5087248;28;20145;-72
2022/09/23 16:08:32;;;;;;;3.85;0.60;;;;;;;;;;5088946;28;20503;-70